sensor_id;sensor_type;location;lat;lon;timestamp;temperature;humidity
18733;DHT22;9495;51.210;2.934;2024-03-07T00:00:13;7.00;99.90
18733;DHT22;9495;51.210;2.934;2024-03-07T00:02:47;7.00;99.90
18733;DHT22;9495;51.210;2.934;2024-03-07T00:05:19;6.90;99.90
18733;DHT22;9495;51.210;2.934;2024-03-07T00:07:49;6.80;99.90
18733;DHT22;9495;51.210;2.934;2024-03-07T00:10:17;6.90;99.90
18733;DHT22;9495;51.210;2.934;2024-03-07T00:12:46;6.80;99.90
18733;DHT22;9495;51.210;2.934;2024-03-07T00:15:15;6.70;99.90
18733;DHT22;9495;51.210;2.934;2024-03-07T00:17:45;6.60;99.90
18733;DHT22;9495;51.210;2.934;2024-03-07T00:20:14;6.70;99.90
18733;DHT22;9495;51.210;2.934;2024-03-07T00:22:48;6.50;99.90
18733;DHT22;9495;51.210;2.934;2024-03-07T00:25:17;6.40;99.90
18733;DHT22;9495;51.210;2.934;2024-03-07T00:27:48;6.40;99.90
18733;DHT22;9495;51.210;2.934;2024-03-07T00:30:19;6.30;99.90
18733;DHT22;9495;51.210;2.934;2024-03-07T00:32:48;6.30;99.90
18733;DHT22;9495;51.210;2.934;2024-03-07T00:35:16;6.20;99.90
18733;DHT22;9495;51.210;2.934;2024-03-07T00:37:47;6.10;99.90
18733;DHT22;9495;51.210;2.934;2024-03-07T00:40:16;6.30;99.90
18733;DHT22;9495;51.210;2.934;2024-03-07T00:42:43;6.40;99.90
18733;DHT22;9495;51.210;2.934;2024-03-07T00:45:12;6.50;99.90
18733;DHT22;9495;51.210;2.934;2024-03-07T00:47:41;6.40;99.90
18733;DHT22;9495;51.210;2.934;2024-03-07T00:50:10;6.40;99.90
18733;DHT22;9495;51.210;2.934;2024-03-07T00:52:39;6.40;99.90
18733;DHT22;9495;51.210;2.934;2024-03-07T00:55:09;6.20;99.90
18733;DHT22;9495;51.210;2.934;2024-03-07T01:03:16;6.20;99.90
18733;DHT22;9495;51.210;2.934;2024-03-07T01:05:46;6.20;99.90
18733;DHT22;9495;51.210;2.934;2024-03-07T01:08:14;6.10;99.90
18733;DHT22;9495;51.210;2.934;2024-03-07T01:10:44;6.10;99.90
18733;DHT22;9495;51.210;2.934;2024-03-07T01:13:12;6.10;99.90
18733;DHT22;9495;51.210;2.934;2024-03-07T01:15:46;6.20;99.90
18733;DHT22;9495;51.210;2.934;2024-03-07T01:18:15;6.10;99.90
18733;DHT22;9495;51.210;2.934;2024-03-07T01:20:44;6.20;99.90
18733;DHT22;9495;51.210;2.934;2024-03-07T01:23:13;6.30;99.90
18733;DHT22;9495;51.210;2.934;2024-03-07T01:25:41;6.50;99.90
18733;DHT22;9495;51.210;2.934;2024-03-07T01:28:11;6.50;99.90
18733;DHT22;9495;51.210;2.934;2024-03-07T01:30:41;6.60;99.90
18733;DHT22;9495;51.210;2.934;2024-03-07T01:33:09;6.60;99.90
18733;DHT22;9495;51.210;2.934;2024-03-07T01:35:37;6.60;99.90
18733;DHT22;9495;51.210;2.934;2024-03-07T01:38:06;6.60;99.90
18733;DHT22;9495;51.210;2.934;2024-03-07T01:40:35;6.60;99.90
18733;DHT22;9495;51.210;2.934;2024-03-07T01:43:03;6.60;99.90
18733;DHT22;9495;51.210;2.934;2024-03-07T01:45:34;6.50;99.90
18733;DHT22;9495;51.210;2.934;2024-03-07T01:48:05;6.50;99.90
18733;DHT22;9495;51.210;2.934;2024-03-07T01:50:34;6.60;99.90
18733;DHT22;9495;51.210;2.934;2024-03-07T01:53:05;6.70;99.90
18733;DHT22;9495;51.210;2.934;2024-03-07T01:55:34;6.70;99.90
18733;DHT22;9495;51.210;2.934;2024-03-07T01:58:03;6.70;99.90
18733;DHT22;9495;51.210;2.934;2024-03-07T02:00:33;6.70;99.90
18733;DHT22;9495;51.210;2.934;2024-03-07T02:03:02;6.80;99.90
18733;DHT22;9495;51.210;2.934;2024-03-07T02:05:30;6.70;99.90
18733;DHT22;9495;51.210;2.934;2024-03-07T02:07:59;6.70;99.90
18733;DHT22;9495;51.210;2.934;2024-03-07T02:10:28;6.70;99.90
18733;DHT22;9495;51.210;2.934;2024-03-07T02:12:56;6.70;99.90
18733;DHT22;9495;51.210;2.934;2024-03-07T02:15:25;6.70;99.90
18733;DHT22;9495;51.210;2.934;2024-03-07T02:17:54;6.70;99.90
18733;DHT22;9495;51.210;2.934;2024-03-07T02:20:24;6.80;99.90
18733;DHT22;9495;51.210;2.934;2024-03-07T02:22:56;6.80;99.90
18733;DHT22;9495;51.210;2.934;2024-03-07T02:25:25;6.80;99.90
18733;DHT22;9495;51.210;2.934;2024-03-07T02:27:54;6.80;99.90
18733;DHT22;9495;51.210;2.934;2024-03-07T02:30:22;6.90;99.90
18733;DHT22;9495;51.210;2.934;2024-03-07T02:32:50;6.80;99.90
18733;DHT22;9495;51.210;2.934;2024-03-07T02:35:22;6.80;99.90
18733;DHT22;9495;51.210;2.934;2024-03-07T02:37:51;6.80;99.90
18733;DHT22;9495;51.210;2.934;2024-03-07T02:40:21;6.70;99.90
18733;DHT22;9495;51.210;2.934;2024-03-07T02:42:50;6.70;99.90
18733;DHT22;9495;51.210;2.934;2024-03-07T02:45:18;6.70;99.90
18733;DHT22;9495;51.210;2.934;2024-03-07T02:47:46;6.70;99.90
18733;DHT22;9495;51.210;2.934;2024-03-07T02:50:15;6.70;99.90
18733;DHT22;9495;51.210;2.934;2024-03-07T02:52:43;6.70;99.90
18733;DHT22;9495;51.210;2.934;2024-03-07T02:55:11;6.70;99.90
18733;DHT22;9495;51.210;2.934;2024-03-07T02:57:41;6.70;99.90
18733;DHT22;9495;51.210;2.934;2024-03-07T03:00:11;6.70;99.90
18733;DHT22;9495;51.210;2.934;2024-03-07T03:02:48;6.70;99.90
18733;DHT22;9495;51.210;2.934;2024-03-07T03:05:17;6.60;99.90
18733;DHT22;9495;51.210;2.934;2024-03-07T03:07:46;6.60;99.90
18733;DHT22;9495;51.210;2.934;2024-03-07T03:10:21;6.60;99.90
18733;DHT22;9495;51.210;2.934;2024-03-07T03:12:55;6.50;99.90
18733;DHT22;9495;51.210;2.934;2024-03-07T03:15:25;6.60;99.90
18733;DHT22;9495;51.210;2.934;2024-03-07T03:17:53;6.50;99.90
18733;DHT22;9495;51.210;2.934;2024-03-07T03:20:26;6.50;99.90
18733;DHT22;9495;51.210;2.934;2024-03-07T03:23:01;6.50;99.90
18733;DHT22;9495;51.210;2.934;2024-03-07T03:25:45;6.60;99.90
18733;DHT22;9495;51.210;2.934;2024-03-07T03:28:17;6.60;99.90
18733;DHT22;9495;51.210;2.934;2024-03-07T03:30:47;6.60;99.90
18733;DHT22;9495;51.210;2.934;2024-03-07T03:33:16;6.60;99.90
18733;DHT22;9495;51.210;2.934;2024-03-07T03:35:45;6.50;99.90
18733;DHT22;9495;51.210;2.934;2024-03-07T03:38:13;6.50;99.90
18733;DHT22;9495;51.210;2.934;2024-03-07T03:40:43;6.50;99.90
18733;DHT22;9495;51.210;2.934;2024-03-07T03:43:11;6.50;99.90
18733;DHT22;9495;51.210;2.934;2024-03-07T03:45:41;6.40;99.90
18733;DHT22;9495;51.210;2.934;2024-03-07T03:48:09;6.50;99.90
18733;DHT22;9495;51.210;2.934;2024-03-07T03:50:38;6.50;99.90
18733;DHT22;9495;51.210;2.934;2024-03-07T03:53:06;6.50;99.90
18733;DHT22;9495;51.210;2.934;2024-03-07T03:55:34;6.50;99.90
18733;DHT22;9495;51.210;2.934;2024-03-07T03:58:04;6.50;99.90
18733;DHT22;9495;51.210;2.934;2024-03-07T04:00:33;6.60;99.90
18733;DHT22;9495;51.210;2.934;2024-03-07T04:03:03;6.50;99.90
18733;DHT22;9495;51.210;2.934;2024-03-07T04:05:31;6.50;99.90
18733;DHT22;9495;51.210;2.934;2024-03-07T04:08:00;6.50;99.90
18733;DHT22;9495;51.210;2.934;2024-03-07T04:10:29;6.50;99.90
18733;DHT22;9495;51.210;2.934;2024-03-07T04:12:58;6.50;99.90
18733;DHT22;9495;51.210;2.934;2024-03-07T04:15:26;6.50;99.90
18733;DHT22;9495;51.210;2.934;2024-03-07T04:18:03;6.40;99.90
18733;DHT22;9495;51.210;2.934;2024-03-07T04:20:32;6.50;99.90
18733;DHT22;9495;51.210;2.934;2024-03-07T04:23:00;6.50;99.90
18733;DHT22;9495;51.210;2.934;2024-03-07T04:25:29;6.40;99.90
18733;DHT22;9495;51.210;2.934;2024-03-07T04:27:58;6.40;99.90
18733;DHT22;9495;51.210;2.934;2024-03-07T04:30:26;6.40;99.90
18733;DHT22;9495;51.210;2.934;2024-03-07T04:32:54;6.40;99.90
18733;DHT22;9495;51.210;2.934;2024-03-07T04:35:24;6.40;99.90
18733;DHT22;9495;51.210;2.934;2024-03-07T04:37:52;6.40;99.90
18733;DHT22;9495;51.210;2.934;2024-03-07T04:40:21;6.40;99.90
18733;DHT22;9495;51.210;2.934;2024-03-07T04:42:49;6.40;99.90
18733;DHT22;9495;51.210;2.934;2024-03-07T04:45:18;6.30;99.90
18733;DHT22;9495;51.210;2.934;2024-03-07T04:47:48;6.40;99.90
18733;DHT22;9495;51.210;2.934;2024-03-07T04:50:17;6.30;99.90
18733;DHT22;9495;51.210;2.934;2024-03-07T04:52:48;6.30;99.90
18733;DHT22;9495;51.210;2.934;2024-03-07T04:55:17;6.40;99.90
18733;DHT22;9495;51.210;2.934;2024-03-07T04:57:45;6.40;99.90
18733;DHT22;9495;51.210;2.934;2024-03-07T05:00:15;6.40;99.90
18733;DHT22;9495;51.210;2.934;2024-03-07T05:02:48;6.30;99.90
18733;DHT22;9495;51.210;2.934;2024-03-07T05:05:18;6.40;99.90
18733;DHT22;9495;51.210;2.934;2024-03-07T05:07:52;6.30;99.90
18733;DHT22;9495;51.210;2.934;2024-03-07T05:10:20;6.30;99.90
18733;DHT22;9495;51.210;2.934;2024-03-07T05:12:48;6.30;99.90
18733;DHT22;9495;51.210;2.934;2024-03-07T05:15:17;6.40;99.90
18733;DHT22;9495;51.210;2.934;2024-03-07T05:17:46;6.40;99.90
18733;DHT22;9495;51.210;2.934;2024-03-07T05:20:14;6.40;99.90
18733;DHT22;9495;51.210;2.934;2024-03-07T05:22:43;6.40;99.90
18733;DHT22;9495;51.210;2.934;2024-03-07T05:25:19;6.40;99.90
18733;DHT22;9495;51.210;2.934;2024-03-07T05:27:50;6.30;99.90
18733;DHT22;9495;51.210;2.934;2024-03-07T05:30:19;6.30;99.90
18733;DHT22;9495;51.210;2.934;2024-03-07T05:32:50;6.30;99.90
18733;DHT22;9495;51.210;2.934;2024-03-07T05:35:18;6.30;99.90
18733;DHT22;9495;51.210;2.934;2024-03-07T05:37:48;6.30;99.90
18733;DHT22;9495;51.210;2.934;2024-03-07T05:40:20;6.30;99.90
18733;DHT22;9495;51.210;2.934;2024-03-07T05:42:49;6.20;99.90
18733;DHT22;9495;51.210;2.934;2024-03-07T05:45:17;6.20;99.90
18733;DHT22;9495;51.210;2.934;2024-03-07T05:47:46;6.30;99.90
18733;DHT22;9495;51.210;2.934;2024-03-07T05:50:16;6.20;99.90
18733;DHT22;9495;51.210;2.934;2024-03-07T05:52:45;6.20;99.90
18733;DHT22;9495;51.210;2.934;2024-03-07T05:55:15;6.20;99.90
18733;DHT22;9495;51.210;2.934;2024-03-07T05:57:48;6.20;99.90
18733;DHT22;9495;51.210;2.934;2024-03-07T06:00:16;6.20;99.90
18733;DHT22;9495;51.210;2.934;2024-03-07T06:02:55;6.20;99.90
18733;DHT22;9495;51.210;2.934;2024-03-07T06:05:23;6.10;99.90
18733;DHT22;9495;51.210;2.934;2024-03-07T06:07:52;6.20;99.90
18733;DHT22;9495;51.210;2.934;2024-03-07T06:10:20;6.20;99.90
18733;DHT22;9495;51.210;2.934;2024-03-07T06:12:52;6.10;99.90
18733;DHT22;9495;51.210;2.934;2024-03-07T06:15:23;6.10;99.90
18733;DHT22;9495;51.210;2.934;2024-03-07T06:17:52;6.10;99.90
18733;DHT22;9495;51.210;2.934;2024-03-07T06:20:21;6.10;99.90
18733;DHT22;9495;51.210;2.934;2024-03-07T06:22:52;6.00;99.90
18733;DHT22;9495;51.210;2.934;2024-03-07T06:25:21;6.00;99.90
18733;DHT22;9495;51.210;2.934;2024-03-07T06:28:03;6.00;99.90
18733;DHT22;9495;51.210;2.934;2024-03-07T06:30:36;6.00;99.90
18733;DHT22;9495;51.210;2.934;2024-03-07T06:33:05;6.10;99.90
18733;DHT22;9495;51.210;2.934;2024-03-07T06:35:33;6.10;99.90
18733;DHT22;9495;51.210;2.934;2024-03-07T06:38:04;6.00;99.90
18733;DHT22;9495;51.210;2.934;2024-03-07T06:40:32;6.10;99.90
18733;DHT22;9495;51.210;2.934;2024-03-07T06:43:02;6.10;99.90
18733;DHT22;9495;51.210;2.934;2024-03-07T06:45:33;6.10;99.90
18733;DHT22;9495;51.210;2.934;2024-03-07T06:48:03;6.10;99.90
18733;DHT22;9495;51.210;2.934;2024-03-07T06:50:34;6.10;99.90
18733;DHT22;9495;51.210;2.934;2024-03-07T06:53:05;6.20;99.90
18733;DHT22;9495;51.210;2.934;2024-03-07T06:55:35;6.20;99.90
18733;DHT22;9495;51.210;2.934;2024-03-07T06:58:06;6.20;99.90
18733;DHT22;9495;51.210;2.934;2024-03-07T07:00:35;6.30;99.90
18733;DHT22;9495;51.210;2.934;2024-03-07T07:03:06;6.40;99.90
18733;DHT22;9495;51.210;2.934;2024-03-07T07:05:34;6.40;99.90
18733;DHT22;9495;51.210;2.934;2024-03-07T07:08:04;6.30;99.90
18733;DHT22;9495;51.210;2.934;2024-03-07T07:10:34;6.40;99.90
18733;DHT22;9495;51.210;2.934;2024-03-07T07:13:03;6.40;99.90
18733;DHT22;9495;51.210;2.934;2024-03-07T07:15:33;6.40;99.90
18733;DHT22;9495;51.210;2.934;2024-03-07T07:18:04;6.40;99.90
18733;DHT22;9495;51.210;2.934;2024-03-07T07:20:34;6.40;99.90
18733;DHT22;9495;51.210;2.934;2024-03-07T07:23:03;6.40;99.90
18733;DHT22;9495;51.210;2.934;2024-03-07T07:25:32;6.50;99.90
18733;DHT22;9495;51.210;2.934;2024-03-07T07:28:01;6.40;99.90
18733;DHT22;9495;51.210;2.934;2024-03-07T07:30:33;6.40;99.90
18733;DHT22;9495;51.210;2.934;2024-03-07T07:33:01;6.40;99.90
18733;DHT22;9495;51.210;2.934;2024-03-07T07:35:30;6.40;99.90
18733;DHT22;9495;51.210;2.934;2024-03-07T07:38:00;6.50;99.90
18733;DHT22;9495;51.210;2.934;2024-03-07T07:40:28;6.50;99.90
18733;DHT22;9495;51.210;2.934;2024-03-07T07:42:58;6.50;99.90
18733;DHT22;9495;51.210;2.934;2024-03-07T07:45:28;6.60;99.90
18733;DHT22;9495;51.210;2.934;2024-03-07T07:48:01;6.60;99.90
18733;DHT22;9495;51.210;2.934;2024-03-07T07:50:29;6.60;99.90
18733;DHT22;9495;51.210;2.934;2024-03-07T07:53:01;6.50;99.90
18733;DHT22;9495;51.210;2.934;2024-03-07T07:55:34;6.70;99.90
18733;DHT22;9495;51.210;2.934;2024-03-07T07:58:03;6.70;99.90
18733;DHT22;9495;51.210;2.934;2024-03-07T08:00:31;6.70;99.90
18733;DHT22;9495;51.210;2.934;2024-03-07T08:03:05;6.70;99.90
18733;DHT22;9495;51.210;2.934;2024-03-07T08:05:35;7.00;99.90
18733;DHT22;9495;51.210;2.934;2024-03-07T08:08:05;6.90;99.90
18733;DHT22;9495;51.210;2.934;2024-03-07T08:10:35;6.90;99.90
18733;DHT22;9495;51.210;2.934;2024-03-07T08:13:04;6.90;99.90
18733;DHT22;9495;51.210;2.934;2024-03-07T08:15:34;7.50;99.90
18733;DHT22;9495;51.210;2.934;2024-03-07T08:18:05;7.40;99.90
18733;DHT22;9495;51.210;2.934;2024-03-07T08:20:37;7.30;99.90
18733;DHT22;9495;51.210;2.934;2024-03-07T08:23:06;7.30;99.90
18733;DHT22;9495;51.210;2.934;2024-03-07T08:25:34;7.40;99.90
18733;DHT22;9495;51.210;2.934;2024-03-07T08:28:03;7.30;99.90
18733;DHT22;9495;51.210;2.934;2024-03-07T08:30:32;7.30;99.90
18733;DHT22;9495;51.210;2.934;2024-03-07T08:33:02;8.00;99.90
18733;DHT22;9495;51.210;2.934;2024-03-07T08:35:34;7.90;99.90
18733;DHT22;9495;51.210;2.934;2024-03-07T08:38:03;8.30;99.90
18733;DHT22;9495;51.210;2.934;2024-03-07T08:40:32;8.10;99.90
18733;DHT22;9495;51.210;2.934;2024-03-07T08:43:01;8.00;99.90
18733;DHT22;9495;51.210;2.934;2024-03-07T08:45:30;9.10;99.90
18733;DHT22;9495;51.210;2.934;2024-03-07T08:48:02;9.50;99.90
18733;DHT22;9495;51.210;2.934;2024-03-07T08:50:34;8.80;99.90
18733;DHT22;9495;51.210;2.934;2024-03-07T08:53:05;9.00;99.90
18733;DHT22;9495;51.210;2.934;2024-03-07T08:55:34;8.60;99.90
18733;DHT22;9495;51.210;2.934;2024-03-07T08:58:04;8.60;99.90
18733;DHT22;9495;51.210;2.934;2024-03-07T09:00:35;9.00;99.90
18733;DHT22;9495;51.210;2.934;2024-03-07T09:03:07;9.70;99.90
18733;DHT22;9495;51.210;2.934;2024-03-07T09:05:41;10.60;99.90
18733;DHT22;9495;51.210;2.934;2024-03-07T09:08:09;10.60;99.90
18733;DHT22;9495;51.210;2.934;2024-03-07T09:10:39;10.60;99.90
18733;DHT22;9495;51.210;2.934;2024-03-07T09:13:09;11.30;99.90
18733;DHT22;9495;51.210;2.934;2024-03-07T09:15:38;11.60;99.90
18733;DHT22;9495;51.210;2.934;2024-03-07T09:18:06;11.40;99.90
18733;DHT22;9495;51.210;2.934;2024-03-07T09:20:36;11.40;99.90
18733;DHT22;9495;51.210;2.934;2024-03-07T09:23:06;10.50;99.90
18733;DHT22;9495;51.210;2.934;2024-03-07T09:25:35;10.40;99.90
18733;DHT22;9495;51.210;2.934;2024-03-07T09:28:03;10.20;99.90
18733;DHT22;9495;51.210;2.934;2024-03-07T09:30:33;10.10;99.90
18733;DHT22;9495;51.210;2.934;2024-03-07T09:33:06;10.50;99.90
18733;DHT22;9495;51.210;2.934;2024-03-07T09:35:38;10.00;99.90
18733;DHT22;9495;51.210;2.934;2024-03-07T09:38:08;10.00;99.90
18733;DHT22;9495;51.210;2.934;2024-03-07T09:40:38;9.90;99.90
18733;DHT22;9495;51.210;2.934;2024-03-07T09:43:07;10.10;99.90
18733;DHT22;9495;51.210;2.934;2024-03-07T09:45:38;9.90;99.90
18733;DHT22;9495;51.210;2.934;2024-03-07T09:48:10;10.00;99.90
18733;DHT22;9495;51.210;2.934;2024-03-07T09:50:40;10.30;99.90
18733;DHT22;9495;51.210;2.934;2024-03-07T09:53:11;10.00;99.90
18733;DHT22;9495;51.210;2.934;2024-03-07T09:55:40;9.90;99.90
18733;DHT22;9495;51.210;2.934;2024-03-07T09:58:09;9.80;99.90
18733;DHT22;9495;51.210;2.934;2024-03-07T10:00:40;9.90;99.90
18733;DHT22;9495;51.210;2.934;2024-03-07T10:03:09;9.90;99.90
18733;DHT22;9495;51.210;2.934;2024-03-07T10:05:41;9.90;99.90
18733;DHT22;9495;51.210;2.934;2024-03-07T10:08:11;9.80;99.90
18733;DHT22;9495;51.210;2.934;2024-03-07T10:10:40;9.90;99.90
18733;DHT22;9495;51.210;2.934;2024-03-07T10:13:09;10.70;99.90
18733;DHT22;9495;51.210;2.934;2024-03-07T10:15:38;10.30;99.90
18733;DHT22;9495;51.210;2.934;2024-03-07T10:18:10;10.40;99.90
18733;DHT22;9495;51.210;2.934;2024-03-07T10:20:42;12.50;99.90
18733;DHT22;9495;51.210;2.934;2024-03-07T10:23:18;11.70;99.90
18733;DHT22;9495;51.210;2.934;2024-03-07T10:25:47;11.30;99.90
18733;DHT22;9495;51.210;2.934;2024-03-07T10:28:16;11.60;99.90
18733;DHT22;9495;51.210;2.934;2024-03-07T10:30:45;11.40;99.90
18733;DHT22;9495;51.210;2.934;2024-03-07T10:33:14;11.10;99.90
18733;DHT22;9495;51.210;2.934;2024-03-07T10:35:46;11.60;99.90
18733;DHT22;9495;51.210;2.934;2024-03-07T10:38:17;11.40;99.90
18733;DHT22;9495;51.210;2.934;2024-03-07T10:40:47;11.30;99.90
18733;DHT22;9495;51.210;2.934;2024-03-07T10:43:19;11.00;99.90
18733;DHT22;9495;51.210;2.934;2024-03-07T10:45:48;11.10;99.90
18733;DHT22;9495;51.210;2.934;2024-03-07T10:48:19;11.30;99.90
18733;DHT22;9495;51.210;2.934;2024-03-07T10:50:59;12.10;99.90
18733;DHT22;9495;51.210;2.934;2024-03-07T10:53:40;12.60;99.90
18733;DHT22;9495;51.210;2.934;2024-03-07T10:56:25;12.20;99.90
18733;DHT22;9495;51.210;2.934;2024-03-07T10:58:58;12.70;99.90
18733;DHT22;9495;51.210;2.934;2024-03-07T11:01:31;12.70;99.90
18733;DHT22;9495;51.210;2.934;2024-03-07T11:04:01;12.70;99.90
18733;DHT22;9495;51.210;2.934;2024-03-07T11:06:33;12.30;99.90
18733;DHT22;9495;51.210;2.934;2024-03-07T11:09:06;12.50;99.90
18733;DHT22;9495;51.210;2.934;2024-03-07T11:11:38;12.10;99.90
18733;DHT22;9495;51.210;2.934;2024-03-07T11:14:10;12.30;99.90
18733;DHT22;9495;51.210;2.934;2024-03-07T11:16:39;12.20;99.90
18733;DHT22;9495;51.210;2.934;2024-03-07T11:19:24;12.40;99.90
18733;DHT22;9495;51.210;2.934;2024-03-07T11:21:55;13.50;99.90
18733;DHT22;9495;51.210;2.934;2024-03-07T11:24:26;13.50;99.90
18733;DHT22;9495;51.210;2.934;2024-03-07T11:26:56;14.40;99.90
18733;DHT22;9495;51.210;2.934;2024-03-07T11:29:47;13.30;99.90
18733;DHT22;9495;51.210;2.934;2024-03-07T11:32:21;14.00;99.90
18733;DHT22;9495;51.210;2.934;2024-03-07T11:34:50;13.60;99.90
18733;DHT22;9495;51.210;2.934;2024-03-07T11:37:39;13.30;99.90
18733;DHT22;9495;51.210;2.934;2024-03-07T11:40:13;13.20;99.90
18733;DHT22;9495;51.210;2.934;2024-03-07T11:42:47;12.90;99.90
18733;DHT22;9495;51.210;2.934;2024-03-07T11:45:17;14.20;99.90
18733;DHT22;9495;51.210;2.934;2024-03-07T11:47:54;13.50;99.90
18733;DHT22;9495;51.210;2.934;2024-03-07T11:50:27;13.10;99.90
18733;DHT22;9495;51.210;2.934;2024-03-07T11:52:56;12.90;99.90
18733;DHT22;9495;51.210;2.934;2024-03-07T11:55:26;12.80;99.90
18733;DHT22;9495;51.210;2.934;2024-03-07T11:57:55;14.30;99.90
18733;DHT22;9495;51.210;2.934;2024-03-07T12:00:24;15.00;99.90
18733;DHT22;9495;51.210;2.934;2024-03-07T12:03:01;15.00;99.90
18733;DHT22;9495;51.210;2.934;2024-03-07T12:05:32;14.00;99.90
18733;DHT22;9495;51.210;2.934;2024-03-07T12:08:05;13.70;99.90
18733;DHT22;9495;51.210;2.934;2024-03-07T12:10:35;13.60;99.90
18733;DHT22;9495;51.210;2.934;2024-03-07T12:13:06;13.10;99.90
18733;DHT22;9495;51.210;2.934;2024-03-07T12:15:35;13.40;99.90
18733;DHT22;9495;51.210;2.934;2024-03-07T12:18:05;13.60;99.90
18733;DHT22;9495;51.210;2.934;2024-03-07T12:20:37;13.10;99.90
18733;DHT22;9495;51.210;2.934;2024-03-07T12:23:06;13.00;99.90
18733;DHT22;9495;51.210;2.934;2024-03-07T12:25:37;13.10;99.90
18733;DHT22;9495;51.210;2.934;2024-03-07T12:28:08;13.50;99.90
18733;DHT22;9495;51.210;2.934;2024-03-07T12:30:48;13.20;99.90
18733;DHT22;9495;51.210;2.934;2024-03-07T12:33:18;12.90;99.90
18733;DHT22;9495;51.210;2.934;2024-03-07T12:35:47;13.30;99.90
18733;DHT22;9495;51.210;2.934;2024-03-07T12:38:17;13.30;99.90
18733;DHT22;9495;51.210;2.934;2024-03-07T12:41:01;13.20;99.90
18733;DHT22;9495;51.210;2.934;2024-03-07T12:43:33;13.50;99.90
18733;DHT22;9495;51.210;2.934;2024-03-07T12:46:01;13.30;99.90
18733;DHT22;9495;51.210;2.934;2024-03-07T12:48:31;13.30;99.90
18733;DHT22;9495;51.210;2.934;2024-03-07T12:51:00;13.40;99.90
18733;DHT22;9495;51.210;2.934;2024-03-07T12:53:30;13.40;99.90
18733;DHT22;9495;51.210;2.934;2024-03-07T12:56:00;13.30;99.90
18733;DHT22;9495;51.210;2.934;2024-03-07T12:58:29;13.70;99.90
18733;DHT22;9495;51.210;2.934;2024-03-07T13:00:59;13.80;99.90
18733;DHT22;9495;51.210;2.934;2024-03-07T13:03:28;14.40;99.90
18733;DHT22;9495;51.210;2.934;2024-03-07T13:05:58;15.20;99.90
18733;DHT22;9495;51.210;2.934;2024-03-07T13:08:29;14.60;99.90
18733;DHT22;9495;51.210;2.934;2024-03-07T13:10:59;14.50;99.90
18733;DHT22;9495;51.210;2.934;2024-03-07T13:13:28;14.40;99.90
18733;DHT22;9495;51.210;2.934;2024-03-07T13:15:58;14.20;99.90
18733;DHT22;9495;51.210;2.934;2024-03-07T13:18:26;14.30;99.90
18733;DHT22;9495;51.210;2.934;2024-03-07T13:20:55;13.90;99.90
18733;DHT22;9495;51.210;2.934;2024-03-07T13:23:23;13.90;99.90
18733;DHT22;9495;51.210;2.934;2024-03-07T13:25:55;13.90;99.90
18733;DHT22;9495;51.210;2.934;2024-03-07T13:28:25;14.10;99.90
18733;DHT22;9495;51.210;2.934;2024-03-07T13:30:56;13.90;99.90
18733;DHT22;9495;51.210;2.934;2024-03-07T13:33:25;13.90;99.90
18733;DHT22;9495;51.210;2.934;2024-03-07T13:35:55;13.70;99.90
18733;DHT22;9495;51.210;2.934;2024-03-07T13:38:23;14.00;99.90
18733;DHT22;9495;51.210;2.934;2024-03-07T13:40:53;13.80;99.90
18733;DHT22;9495;51.210;2.934;2024-03-07T13:43:21;13.90;99.90
18733;DHT22;9495;51.210;2.934;2024-03-07T13:45:51;13.60;99.90
18733;DHT22;9495;51.210;2.934;2024-03-07T13:48:20;14.00;99.90
18733;DHT22;9495;51.210;2.934;2024-03-07T13:50:49;13.90;99.90
18733;DHT22;9495;51.210;2.934;2024-03-07T13:53:26;14.50;99.90
18733;DHT22;9495;51.210;2.934;2024-03-07T13:59:45;14.40;99.90
18733;DHT22;9495;51.210;2.934;2024-03-07T14:05:55;14.30;99.90
18733;DHT22;9495;51.210;2.934;2024-03-07T14:18:06;14.50;99.90
18733;DHT22;9495;51.210;2.934;2024-03-07T14:24:14;13.80;99.90
18733;DHT22;9495;51.210;2.934;2024-03-07T14:27:14;13.60;99.90
18733;DHT22;9495;51.210;2.934;2024-03-07T14:29:50;14.20;99.90
18733;DHT22;9495;51.210;2.934;2024-03-07T14:32:23;14.20;99.90
18733;DHT22;9495;51.210;2.934;2024-03-07T14:35:00;14.50;99.90
18733;DHT22;9495;51.210;2.934;2024-03-07T14:37:37;14.10;99.90
18733;DHT22;9495;51.210;2.934;2024-03-07T14:40:10;14.30;99.90
18733;DHT22;9495;51.210;2.934;2024-03-07T14:42:43;13.80;99.90
18733;DHT22;9495;51.210;2.934;2024-03-07T14:45:15;14.20;99.90
18733;DHT22;9495;51.210;2.934;2024-03-07T14:47:48;14.30;99.90
18733;DHT22;9495;51.210;2.934;2024-03-07T14:50:18;14.40;99.90
18733;DHT22;9495;51.210;2.934;2024-03-07T14:52:47;14.20;99.90
18733;DHT22;9495;51.210;2.934;2024-03-07T14:55:17;14.40;99.90
18733;DHT22;9495;51.210;2.934;2024-03-07T14:57:46;14.40;99.90
18733;DHT22;9495;51.210;2.934;2024-03-07T15:00:15;14.60;99.90
18733;DHT22;9495;51.210;2.934;2024-03-07T15:03:00;13.90;99.90
18733;DHT22;9495;51.210;2.934;2024-03-07T15:05:29;14.00;99.90
18733;DHT22;9495;51.210;2.934;2024-03-07T15:07:58;13.90;99.90
18733;DHT22;9495;51.210;2.934;2024-03-07T15:10:31;13.90;99.90
18733;DHT22;9495;51.210;2.934;2024-03-07T15:13:00;13.50;99.90
18733;DHT22;9495;51.210;2.934;2024-03-07T15:15:30;13.60;99.90
18733;DHT22;9495;51.210;2.934;2024-03-07T15:17:59;13.50;99.90
18733;DHT22;9495;51.210;2.934;2024-03-07T15:20:28;13.50;99.90
18733;DHT22;9495;51.210;2.934;2024-03-07T15:22:59;14.10;99.90
18733;DHT22;9495;51.210;2.934;2024-03-07T15:25:29;13.60;99.90
18733;DHT22;9495;51.210;2.934;2024-03-07T15:27:58;13.40;99.90
18733;DHT22;9495;51.210;2.934;2024-03-07T15:30:27;13.80;99.90
18733;DHT22;9495;51.210;2.934;2024-03-07T15:32:58;14.20;99.90
18733;DHT22;9495;51.210;2.934;2024-03-07T15:35:27;14.30;99.90
18733;DHT22;9495;51.210;2.934;2024-03-07T15:37:57;14.20;99.90
18733;DHT22;9495;51.210;2.934;2024-03-07T15:40:26;14.40;99.90
18733;DHT22;9495;51.210;2.934;2024-03-07T15:42:57;14.40;99.90
18733;DHT22;9495;51.210;2.934;2024-03-07T15:45:25;13.80;99.90
18733;DHT22;9495;51.210;2.934;2024-03-07T15:47:55;14.30;99.90
18733;DHT22;9495;51.210;2.934;2024-03-07T15:50:27;14.60;99.90
18733;DHT22;9495;51.210;2.934;2024-03-07T15:52:57;14.10;99.90
18733;DHT22;9495;51.210;2.934;2024-03-07T15:55:27;14.00;99.90
18733;DHT22;9495;51.210;2.934;2024-03-07T15:58:00;13.80;99.90
18733;DHT22;9495;51.210;2.934;2024-03-07T16:00:31;13.30;99.90
18733;DHT22;9495;51.210;2.934;2024-03-07T16:03:02;13.50;99.90
18733;DHT22;9495;51.210;2.934;2024-03-07T16:05:32;13.90;99.90
18733;DHT22;9495;51.210;2.934;2024-03-07T16:08:05;14.00;99.90
18733;DHT22;9495;51.210;2.934;2024-03-07T16:10:35;14.00;99.90
18733;DHT22;9495;51.210;2.934;2024-03-07T16:13:06;13.70;99.90
18733;DHT22;9495;51.210;2.934;2024-03-07T16:15:35;13.60;99.90
18733;DHT22;9495;51.210;2.934;2024-03-07T16:18:08;13.80;99.90
18733;DHT22;9495;51.210;2.934;2024-03-07T16:20:39;13.40;99.90
18733;DHT22;9495;51.210;2.934;2024-03-07T16:23:07;13.20;99.90
18733;DHT22;9495;51.210;2.934;2024-03-07T16:25:37;12.90;99.90
18733;DHT22;9495;51.210;2.934;2024-03-07T16:28:07;13.00;99.90
18733;DHT22;9495;51.210;2.934;2024-03-07T16:30:38;12.60;99.90
18733;DHT22;9495;51.210;2.934;2024-03-07T16:33:12;12.70;99.90
18733;DHT22;9495;51.210;2.934;2024-03-07T16:35:45;12.40;99.90
18733;DHT22;9495;51.210;2.934;2024-03-07T16:38:13;12.40;99.90
18733;DHT22;9495;51.210;2.934;2024-03-07T16:40:43;12.40;99.90